Time;durP1;ratioP1;P1;durP2;ratioP2;P2;SDS_P1;SDS_P2;PMS_P1;PMS_P2;Temp;Humidity;BMP_temperature;BMP_pressure;BME280_temperature;BME280_humidity;BME280_pressure;Samples;Min_cycle;Max_cycle;Signal;HPM_P1;HPM_P2
2022/10/23 00:02:20;;;;;;;;;;;410.50;2355.20;;;;;;5010583;28;20045;-60
2022/10/23 00:04:49;;;;;;;;;;;410.30;2355.20;;;;;;5010446;28;20004;-60
2022/10/23 00:07:14;;;;;;;;;;;410.40;2355.20;;;;;;5014905;28;19910;-60
2022/10/23 00:09:40;;;;;;;;;;;410.50;2355.20;;;;;;5014568;28;20319;-60
2022/10/23 00:12:05;;;;;;;;;;;410.50;2355.20;;;;;;5014476;28;19941;-60
2022/10/23 00:14:31;;;;;;;;;;;435.20;2355.20;;;;;;5014762;28;19910;-60
2022/10/23 00:16:57;;;;;;;;;;;435.20;2355.20;;;;;;5014583;28;19916;-60
2022/10/23 00:19:22;;;;;;;;;;;435.30;2355.20;;;;;;5014406;28;20287;-59
2022/10/23 00:21:48;;;;;;;;;;;435.30;2355.20;;;;;;5014213;28;19913;-60
2022/10/23 00:24:13;;;;;;;;;;;435.30;2355.20;;;;;;5014474;28;20003;-60
2022/10/23 00:26:39;;;;;;;;;;;435.20;2355.20;;;;;;5014206;28;19916;-60
2022/10/23 00:29:05;;;;;;;;;;;435.20;2355.20;;;;;;5014348;28;19924;-61
2022/10/23 00:31:31;;;;;;;;;;;435.20;2355.20;;;;;;5014400;28;19913;-60
2022/10/23 00:33:56;;;;;;;;;;;435.20;2355.20;;;;;;5013950;28;19917;-60
2022/10/23 00:36:22;;;;;;;;;;;435.20;2355.20;;;;;;5014082;28;19922;-61
2022/10/23 00:38:48;;;;;;;;;;;435.20;2355.20;;;;;;5013811;28;19909;-60
2022/10/23 00:41:16;;;;;;;;;;;435.20;2355.20;;;;;;5014052;28;19916;-58
2022/10/23 00:43:59;;;;;;;;;;;435.30;2355.20;;;;;;5014169;28;19952;-60
2022/10/23 00:46:25;;;;;;;;;;;435.30;2355.20;;;;;;4996390;28;19991;-61
2022/10/23 00:48:50;;;;;;;;;;;435.30;2355.20;;;;;;5013926;28;19918;-60
2022/10/23 00:51:16;;;;;;;;;;;435.30;2355.20;;;;;;5013696;28;20394;-59
2022/10/23 00:53:43;;;;;;;;;;;410.50;2355.20;;;;;;5013861;28;20307;-60
2022/10/23 00:56:09;;;;;;;;;;;435.20;2355.20;;;;;;5013647;28;19909;-60
2022/10/23 00:58:34;;;;;;;;;;;435.20;2355.20;;;;;;5013816;28;20364;-61
2022/10/23 01:01:00;;;;;;;;;;;435.20;2355.20;;;;;;5013676;28;19945;-60
2022/10/23 01:03:27;;;;;;;;;;;435.30;2355.20;;;;;;5013518;28;19916;-59
2022/10/23 01:06:04;;;;;;;;;;;435.30;2355.20;;;;;;5013595;28;19939;-60
2022/10/23 01:08:29;;;;;;;;;;;435.30;2355.20;;;;;;5013487;28;19909;-60
2022/10/23 01:10:59;;;;;;;;;;;435.30;2355.20;;;;;;5013526;28;20347;-60
2022/10/23 01:13:24;;;;;;;;;;;435.30;2355.20;;;;;;5013596;28;19913;-60
2022/10/23 01:15:58;;;;;;;;;;;435.20;2355.20;;;;;;5012689;28;20885;-60
2022/10/23 01:18:26;;;;;;;;;;;435.30;2355.20;;;;;;5013666;28;19917;-60
2022/10/23 01:20:51;;;;;;;;;;;435.30;2355.20;;;;;;5013307;28;19916;-60
2022/10/23 01:23:32;;;;;;;;;;;435.30;2355.20;;;;;;5013070;28;19909;-60
2022/10/23 01:25:58;;;;;;;;;;;435.20;2355.20;;;;;;5012902;28;20257;-60
2022/10/23 01:28:33;;;;;;;;;;;410.50;2355.20;;;;;;5013188;28;19924;-59
2022/10/23 01:31:00;;;;;;;;;;;410.40;2355.20;;;;;;5012935;28;19929;-60
2022/10/23 01:33:30;;;;;;;;;;;410.40;2355.20;;;;;;5012944;28;20351;-60
2022/10/23 01:36:00;;;;;;;;;;;410.50;2355.20;;;;;;5012699;28;19925;-60
2022/10/23 01:38:40;;;;;;;;;;;410.50;2355.20;;;;;;5012945;28;20004;-60
2022/10/23 01:41:12;;;;;;;;;;;410.50;2355.20;;;;;;5012686;28;19910;-60
2022/10/23 01:43:40;;;;;;;;;;;410.50;2355.20;;;;;;5012680;28;20275;-60
2022/10/23 01:46:08;;;;;;;;;;;410.50;2355.20;;;;;;5012675;28;19909;-60
2022/10/23 01:48:34;;;;;;;;;;;410.50;2355.20;;;;;;5012884;28;19956;-60
2022/10/23 01:51:02;;;;;;;;;;;410.50;2355.20;;;;;;5012746;28;19999;-62
2022/10/23 01:53:30;;;;;;;;;;;410.50;2355.20;;;;;;5012603;28;20374;-60
2022/10/23 01:55:57;;;;;;;;;;;435.20;2355.20;;;;;;5012352;28;20375;-60
2022/10/23 01:58:24;;;;;;;;;;;410.50;2355.20;;;;;;5012839;28;19909;-60
2022/10/23 02:00:51;;;;;;;;;;;435.20;2355.20;;;;;;5012735;28;19910;-60
2022/10/23 02:03:17;;;;;;;;;;;410.50;2355.20;;;;;;5012519;28;19917;-60
2022/10/23 02:05:43;;;;;;;;;;;410.20;2355.20;;;;;;5012407;28;19917;-60
2022/10/23 02:08:09;;;;;;;;;;;410.00;2355.20;;;;;;5012309;28;19914;-60
2022/10/23 02:10:41;;;;;;;;;;;410.00;2355.20;;;;;;5012288;28;19917;-61
2022/10/23 02:13:26;;;;;;;;;;;409.90;2355.20;;;;;;5012347;28;19909;-61
2022/10/23 02:15:59;;;;;;;;;;;409.80;2355.20;;;;;;5012322;28;19909;-59
2022/10/23 02:18:32;;;;;;;;;;;409.90;2355.20;;;;;;5012340;28;19914;-60
2022/10/23 02:21:06;;;;;;;;;;;409.80;2355.20;;;;;;5012212;28;19916;-60
2022/10/23 02:23:53;;;;;;;;;;;409.80;2355.20;;;;;;5012519;28;19910;-60
2022/10/23 02:26:34;;;;;;;;;;;409.70;2355.20;;;;;;5011816;28;19909;-60
2022/10/23 02:29:20;;;;;;;;;;;409.80;2355.20;;;;;;5010946;28;19918;-60
2022/10/23 02:31:45;;;;;;;;;;;409.90;2355.20;;;;;;5011743;28;19964;-59
2022/10/23 02:34:11;;;;;;;;;;;409.90;2355.20;;;;;;5011832;28;20367;-60
2022/10/23 02:36:36;;;;;;;;;;;410.00;2355.20;;;;;;5011811;28;19928;-59
2022/10/23 02:39:02;;;;;;;;;;;410.00;2355.20;;;;;;5011947;28;19910;-61
2022/10/23 02:41:41;;;;;;;;;;;410.00;2355.20;;;;;;5012037;28;20327;-59
2022/10/23 02:44:10;;;;;;;;;;;410.10;2355.20;;;;;;5011639;28;19917;-60
2022/10/23 02:46:42;;;;;;;;;;;410.00;2355.20;;;;;;5011693;28;19910;-60
2022/10/23 02:49:26;;;;;;;;;;;410.00;2355.20;;;;;;5011610;28;19914;-60
2022/10/23 02:51:57;;;;;;;;;;;410.00;2355.20;;;;;;5011701;28;19918;-61
2022/10/23 02:54:41;;;;;;;;;;;410.20;2355.20;;;;;;5011684;28;19997;-60
2022/10/23 02:57:19;;;;;;;;;;;410.10;2355.20;;;;;;5011386;28;19964;-59
2022/10/23 02:59:47;;;;;;;;;;;410.00;2355.20;;;;;;5011661;28;19918;-60
2022/10/23 03:02:12;;;;;;;;;;;410.00;2355.20;;;;;;5011610;28;19909;-60
2022/10/23 03:04:39;;;;;;;;;;;410.00;2355.20;;;;;;5011073;28;20279;-60
2022/10/23 03:07:05;;;;;;;;;;;409.90;2355.20;;;;;;5011373;28;20372;-60
2022/10/23 03:09:30;;;;;;;;;;;409.90;2355.20;;;;;;5011382;28;19917;-60
2022/10/23 03:11:56;;;;;;;;;;;409.90;2355.20;;;;;;5011255;28;19916;-61
2022/10/23 03:14:21;;;;;;;;;;;410.00;2355.20;;;;;;5011548;28;19924;-60
2022/10/23 03:16:47;;;;;;;;;;;409.90;2355.20;;;;;;5011080;28;19932;-59
2022/10/23 03:19:12;;;;;;;;;;;409.80;2355.20;;;;;;5011346;28;19916;-61
2022/10/23 03:21:38;;;;;;;;;;;409.90;2355.20;;;;;;5010934;28;20347;-61
2022/10/23 03:24:04;;;;;;;;;;;409.90;2355.20;;;;;;5011114;28;19918;-59
2022/10/23 03:26:29;;;;;;;;;;;410.00;2355.20;;;;;;5010928;28;20020;-60
2022/10/23 03:28:55;;;;;;;;;;;410.10;2355.20;;;;;;5010824;28;19913;-60
2022/10/23 03:31:20;;;;;;;;;;;410.20;2355.20;;;;;;5011238;28;20352;-60
2022/10/23 03:33:46;;;;;;;;;;;410.00;2355.20;;;;;;5010798;28;20267;-61
2022/10/23 03:36:11;;;;;;;;;;;409.90;2355.20;;;;;;5010910;28;19921;-60
2022/10/23 03:38:37;;;;;;;;;;;409.80;2355.20;;;;;;5010794;28;20359;-60
2022/10/23 03:41:02;;;;;;;;;;;409.70;2355.20;;;;;;5010757;28;20321;-60
2022/10/23 03:43:28;;;;;;;;;;;384.90;2329.60;;;;;;5010827;28;19933;-60
2022/10/23 03:45:57;;;;;;;;;;;384.90;2329.60;;;;;;5010945;28;19909;-60
2022/10/23 03:48:23;;;;;;;;;;;409.70;2355.20;;;;;;5010735;28;20443;-60
2022/10/23 03:50:49;;;;;;;;;;;409.80;2355.20;;;;;;5010761;28;20024;-60
2022/10/23 03:53:14;;;;;;;;;;;409.90;2355.20;;;;;;5010828;28;20469;-59
2022/10/23 03:55:40;;;;;;;;;;;410.00;2355.20;;;;;;5010019;28;19910;-60
2022/10/23 03:58:06;;;;;;;;;;;409.80;2355.20;;;;;;5010704;28;20008;-60
2022/10/23 04:00:31;;;;;;;;;;;409.80;2355.20;;;;;;5010569;28;19917;-59
2022/10/23 04:02:57;;;;;;;;;;;409.90;2355.20;;;;;;5010576;28;19941;-59
2022/10/23 04:05:22;;;;;;;;;;;410.00;2355.20;;;;;;5010563;28;19924;-60
2022/10/23 04:07:48;;;;;;;;;;;409.90;2355.20;;;;;;5010430;28;19909;-61
2022/10/23 04:10:13;;;;;;;;;;;410.00;2355.20;;;;;;5010623;28;19918;-60
2022/10/23 04:12:39;;;;;;;;;;;409.90;2355.20;;;;;;4992698;28;19913;-60
2022/10/23 04:15:05;;;;;;;;;;;409.90;2355.20;;;;;;5010682;28;19914;-60
2022/10/23 04:17:30;;;;;;;;;;;410.00;2355.20;;;;;;5010699;28;20327;-60
2022/10/23 04:19:56;;;;;;;;;;;409.90;2355.20;;;;;;5010489;28;19910;-60
2022/10/23 04:22:21;;;;;;;;;;;410.00;2355.20;;;;;;5010636;28;19956;-60
2022/10/23 04:24:47;;;;;;;;;;;410.00;2355.20;;;;;;5010283;28;19952;-60
2022/10/23 04:27:13;;;;;;;;;;;410.00;2355.20;;;;;;5010330;28;19910;-60
2022/10/23 04:29:38;;;;;;;;;;;409.90;2355.20;;;;;;5010267;28;19960;-60
2022/10/23 04:32:05;;;;;;;;;;;409.80;2355.20;;;;;;5010453;28;19941;-61
2022/10/23 04:34:31;;;;;;;;;;;409.90;2355.20;;;;;;5010319;28;20326;-61
2022/10/23 04:36:56;;;;;;;;;;;409.90;2355.20;;;;;;5010114;28;20008;-60
2022/10/23 04:39:22;;;;;;;;;;;409.80;2355.20;;;;;;5010408;28;20267;-60
2022/10/23 04:41:47;;;;;;;;;;;409.80;2355.20;;;;;;5010064;28;19910;-59
2022/10/23 04:44:13;;;;;;;;;;;409.70;2355.20;;;;;;5010398;28;19909;-59
2022/10/23 04:46:39;;;;;;;;;;;409.70;2355.20;;;;;;5010047;28;19992;-59
2022/10/23 04:49:04;;;;;;;;;;;409.70;2355.20;;;;;;5010278;28;20279;-61
2022/10/23 04:51:30;;;;;;;;;;;409.70;2355.20;;;;;;5011446;28;20463;-60
2022/10/23 04:53:55;;;;;;;;;;;409.70;2355.20;;;;;;5013766;28;20012;-60
2022/10/23 04:56:21;;;;;;;;;;;409.70;2355.20;;;;;;5013841;28;19913;-60
2022/10/23 04:58:46;;;;;;;;;;;409.60;2355.20;;;;;;5013633;28;19910;-60
2022/10/23 05:01:12;;;;;;;;;;;409.60;2355.20;;;;;;5013721;28;20008;-60
2022/10/23 05:03:37;;;;;;;;;;;409.60;2355.20;;;;;;5013546;28;19984;-59
2022/10/23 05:06:03;;;;;;;;;;;409.70;2355.20;;;;;;5013572;28;19948;-60
2022/10/23 05:08:29;;;;;;;;;;;409.70;2355.20;;;;;;5013530;28;19909;-61
2022/10/23 05:10:54;;;;;;;;;;;409.70;2355.20;;;;;;5013481;28;20391;-59
2022/10/23 05:13:20;;;;;;;;;;;409.70;2355.20;;;;;;5013352;28;19953;-61
2022/10/23 05:15:47;;;;;;;;;;;409.70;2355.20;;;;;;5013445;28;19910;-60
2022/10/23 05:18:15;;;;;;;;;;;409.70;2355.20;;;;;;5013576;28;19995;-60
2022/10/23 05:20:41;;;;;;;;;;;409.70;2355.20;;;;;;5013381;28;19909;-60
2022/10/23 05:23:08;;;;;;;;;;;409.70;2355.20;;;;;;5018187;28;20378;-58
2022/10/23 05:25:34;;;;;;;;;;;409.60;2355.20;;;;;;5024216;28;19913;-60
2022/10/23 05:28:00;;;;;;;;;;;384.90;2329.60;;;;;;5030968;28;19909;-61
2022/10/23 05:30:26;;;;;;;;;;;384.90;2329.60;;;;;;5033013;28;19925;-61
2022/10/23 05:32:51;;;;;;;;;;;384.90;2329.60;;;;;;5032998;28;20371;-60
2022/10/23 05:35:19;;;;;;;;;;;384.90;2329.60;;;;;;5032509;28;19925;-61
2022/10/23 05:37:45;;;;;;;;;;;409.60;2355.20;;;;;;5032989;28;20012;-60
2022/10/23 05:40:11;;;;;;;;;;;409.70;2355.20;;;;;;5032927;28;19947;-59
2022/10/23 05:42:37;;;;;;;;;;;409.80;2355.20;;;;;;5032536;28;20324;-59
2022/10/23 05:45:03;;;;;;;;;;;409.70;2355.20;;;;;;5032854;28;19913;-61
2022/10/23 05:47:30;;;;;;;;;;;409.90;2355.20;;;;;;5032496;28;19909;-58
2022/10/23 05:49:56;;;;;;;;;;;410.20;2355.20;;;;;;5032293;28;19917;-60
2022/10/23 05:52:21;;;;;;;;;;;410.30;2355.20;;;;;;5032612;28;19920;-60
2022/10/23 05:54:49;;;;;;;;;;;410.30;2355.20;;;;;;5032440;28;19916;-61
2022/10/23 05:57:14;;;;;;;;;;;410.50;2355.20;;;;;;5032435;28;19912;-60
2022/10/23 05:59:40;;;;;;;;;;;435.30;2355.20;;;;;;5032329;28;20366;-60
2022/10/23 06:02:06;;;;;;;;;;;435.40;2355.20;;;;;;5032219;28;19909;-59
2022/10/23 06:04:32;;;;;;;;;;;435.50;2355.20;;;;;;5032446;28;19917;-60
2022/10/23 06:06:58;;;;;;;;;;;435.50;2355.20;;;;;;5032300;28;19916;-60
2022/10/23 06:09:23;;;;;;;;;;;435.50;2355.20;;;;;;5032213;28;19913;-61
2022/10/23 06:11:49;;;;;;;;;;;435.30;2355.20;;;;;;5031981;28;19968;-59
2022/10/23 06:14:14;;;;;;;;;;;435.30;2355.20;;;;;;5032244;28;19948;-60
2022/10/23 06:16:40;;;;;;;;;;;435.40;2355.20;;;;;;5021829;28;19914;-61
2022/10/23 06:19:08;;;;;;;;;;;435.30;2355.20;;;;;;5012411;28;20415;-61
2022/10/23 06:21:35;;;;;;;;;;;435.20;2355.20;;;;;;5017339;28;19960;-60
2022/10/23 06:24:00;;;;;;;;;;;435.30;2355.20;;;;;;5030674;28;20351;-62
2022/10/23 06:26:26;;;;;;;;;;;435.60;2355.20;;;;;;5031691;28;19915;-61
2022/10/23 06:28:52;;;;;;;;;;;435.70;2355.20;;;;;;5031716;28;19920;-61
2022/10/23 06:31:25;;;;;;;;;;;436.10;2355.20;;;;;;5031578;28;20359;-61
2022/10/23 06:33:51;;;;;;;;;;;460.80;2380.80;;;;;;5013904;28;20421;-60
2022/10/23 06:36:17;;;;;;;;;;;461.10;2380.80;;;;;;5031556;28;19928;-60
2022/10/23 06:38:42;;;;;;;;;;;461.10;2380.80;;;;;;5031847;28;19909;-60
2022/10/23 06:41:15;;;;;;;;;;;461.10;2380.80;;;;;;5031295;28;19955;-60
2022/10/23 06:43:41;;;;;;;;;;;461.00;2380.80;;;;;;5031565;28;19916;-61
2022/10/23 06:46:06;;;;;;;;;;;461.00;2380.80;;;;;;5013591;28;19909;-60
2022/10/23 06:48:32;;;;;;;;;;;460.90;2380.80;;;;;;5031631;28;20279;-61
2022/10/23 06:50:58;;;;;;;;;;;460.90;2380.80;;;;;;5031334;28;19913;-60
2022/10/23 06:53:24;;;;;;;;;;;460.80;2380.80;;;;;;5031543;28;19916;-60
2022/10/23 06:55:50;;;;;;;;;;;460.90;2380.80;;;;;;5031330;28;19909;-60
2022/10/23 06:58:16;;;;;;;;;;;460.80;2380.80;;;;;;5030887;28;19932;-60
2022/10/23 07:00:43;;;;;;;;;;;436.10;2355.20;;;;;;5028123;28;20368;-60
2022/10/23 07:03:09;;;;;;;;;;;436.00;2355.20;;;;;;5030882;28;19999;-61
2022/10/23 07:05:35;;;;;;;;;;;435.90;2355.20;;;;;;5023449;28;20008;-59
2022/10/23 07:08:02;;;;;;;;;;;435.90;2355.20;;;;;;5019007;28;19909;-58
2022/10/23 07:10:28;;;;;;;;;;;435.90;2355.20;;;;;;5011053;28;19918;-60
2022/10/23 07:12:59;;;;;;;;;;;436.10;2355.20;;;;;;5011318;28;19910;-59
2022/10/23 07:15:25;;;;;;;;;;;461.50;2380.80;;;;;;5010760;28;19914;-60
2022/10/23 07:17:52;;;;;;;;;;;461.70;2380.80;;;;;;4992826;28;21460;-61
2022/10/23 07:20:17;;;;;;;;;;;512.40;2380.80;;;;;;5011172;28;20025;-61
2022/10/23 07:22:43;;;;;;;;;;;563.60;2432.00;;;;;;5009832;28;19913;-58
2022/10/23 07:25:09;;;;;;;;;;;589.50;2432.00;;;;;;5009493;28;19956;-59
2022/10/23 07:27:36;;;;;;;;;;;614.80;2355.20;;;;;;5009387;28;19935;-59
2022/10/23 07:30:01;;;;;;;;;;;615.10;2252.80;;;;;;5009354;28;19925;-61
2022/10/23 07:32:27;;;;;;;;;;;615.20;2252.80;;;;;;5009447;28;20382;-61
2022/10/23 07:34:53;;;;;;;;;;;640.20;2176.00;;;;;;5009352;28;20410;-59
2022/10/23 07:37:18;;;;;;;;;;;640.30;2150.40;;;;;;5008669;28;19914;-60
2022/10/23 07:39:44;;;;;;;;;;;640.50;2124.80;;;;;;5009501;28;19992;-59
2022/10/23 07:42:10;;;;;;;;;;;665.70;2048.00;;;;;;5009182;28;19914;-61
2022/10/23 07:44:36;;;;;;;;;;;691.70;1945.60;;;;;;5008912;28;19925;-59
2022/10/23 07:47:01;;;;;;;;;;;691.90;1920.00;;;;;;5009316;28;19910;-61
2022/10/23 07:49:27;;;;;;;;;;;716.90;1894.40;;;;;;5008649;28;19945;-60
2022/10/23 07:51:53;;;;;;;;;;;691.60;1920.00;;;;;;5009399;28;19917;-61
2022/10/23 07:54:18;;;;;;;;;;;717.50;1817.60;;;;;;5009179;28;20020;-59
2022/10/23 07:56:44;;;;;;;;;;;742.70;1817.60;;;;;;5009381;28;19964;-60
2022/10/23 07:59:11;;;;;;;;;;;717.50;1817.60;;;;;;5009044;28;19914;-62
2022/10/23 08:01:37;;;;;;;;;;;742.80;1792.00;;;;;;5009255;28;19910;-62
2022/10/23 08:04:03;;;;;;;;;;;768.30;1689.60;;;;;;5008863;28;20268;-60
2022/10/23 08:06:28;;;;;;;;;;;743.10;1740.80;;;;;;5008982;28;19924;-59
2022/10/23 08:08:54;;;;;;;;;;;717.60;1766.40;;;;;;5009254;28;19917;-59
2022/10/23 08:11:24;;;;;;;;;;;768.70;1664.00;;;;;;5008838;28;19921;-59
2022/10/23 08:13:53;;;;;;;;;;;793.80;1638.40;;;;;;5008878;28;19917;-59
2022/10/23 08:16:19;;;;;;;;;;;768.50;1664.00;;;;;;4990704;28;19921;-60
2022/10/23 08:18:47;;;;;;;;;;;794.40;1612.80;;;;;;5009024;28;19913;-60
2022/10/23 08:21:12;;;;;;;;;;;794.10;1612.80;;;;;;5009267;28;19913;-59
2022/10/23 08:23:38;;;;;;;;;;;819.50;1561.60;;;;;;5008817;28;20296;-60
2022/10/23 08:26:04;;;;;;;;;;;793.70;1638.40;;;;;;5009602;28;19925;-58
2022/10/23 08:28:30;;;;;;;;;;;819.40;1536.00;;;;;;5012424;28;19909;-62
2022/10/23 08:30:55;;;;;;;;;;;768.80;1612.80;;;;;;5012614;28;20044;-61
2022/10/23 08:33:21;;;;;;;;;;;793.90;1612.80;;;;;;5012568;28;20292;-60
2022/10/23 08:35:46;;;;;;;;;;;768.80;1587.20;;;;;;5012223;28;19941;-60
2022/10/23 08:38:12;;;;;;;;;;;793.80;1612.80;;;;;;5020227;28;19987;-59
2022/10/23 08:40:42;;;;;;;;;;;794.00;1587.20;;;;;;5032188;28;19916;-59
2022/10/23 08:43:10;;;;;;;;;;;793.80;1587.20;;;;;;5031439;28;20722;-60
2022/10/23 08:45:36;;;;;;;;;;;793.70;1587.20;;;;;;5031922;28;19920;-61
2022/10/23 08:48:28;;;;;;;;;;;794.50;1561.60;;;;;;5032262;28;19909;-60
2022/10/23 08:50:59;;;;;;;;;;;819.30;1536.00;;;;;;4994111;28;19917;-59
2022/10/23 08:53:45;;;;;;;;;;;819.90;1484.80;;;;;;5031995;28;19999;-58
2022/10/23 08:56:19;;;;;;;;;;;819.30;1536.00;;;;;;5030763;28;19952;-60
2022/10/23 08:58:51;;;;;;;;;;;794.50;1536.00;;;;;;5033957;28;19914;-60
2022/10/23 09:01:20;;;;;;;;;;;794.10;1561.60;;;;;;5033207;28;20355;-59
2022/10/23 09:03:45;;;;;;;;;;;768.60;1561.60;;;;;;5033515;28;19920;-60
2022/10/23 09:06:15;;;;;;;;;;;743.10;1638.40;;;;;;5033448;28;19909;-60
2022/10/23 09:08:49;;;;;;;;;;;742.80;1664.00;;;;;;5033220;28;19949;-59
2022/10/23 09:11:18;;;;;;;;;;;717.20;1715.20;;;;;;5033297;28;19920;-59
2022/10/23 09:14:02;;;;;;;;;;;691.70;1715.20;;;;;;5033249;28;20000;-58
2022/10/23 09:16:52;;;;;;;;;;;691.30;1766.40;;;;;;5033215;28;19909;-58
2022/10/23 09:19:19;;;;;;;;;;;691.40;1792.00;;;;;;5032977;28;19916;-59
2022/10/23 09:21:46;;;;;;;;;;;665.90;1843.20;;;;;;5033335;28;19988;-57
2022/10/23 09:24:19;;;;;;;;;;;640.50;1894.40;;;;;;5033089;28;19913;-59
2022/10/23 09:26:48;;;;;;;;;;;640.40;1868.80;;;;;;5032981;28;19909;-58
2022/10/23 09:29:23;;;;;;;;;;;640.50;1894.40;;;;;;5033049;28;19917;-59
2022/10/23 09:31:52;;;;;;;;;;;640.50;1894.40;;;;;;5032793;28;20003;-59
2022/10/23 09:34:20;;;;;;;;;;;640.90;1868.80;;;;;;5032956;28;19923;-60
2022/10/23 09:36:50;;;;;;;;;;;640.70;1868.80;;;;;;5032150;28;20006;-59
2022/10/23 09:39:29;;;;;;;;;;;615.30;1945.60;;;;;;5032897;28;19944;-59
2022/10/23 09:41:56;;;;;;;;;;;640.20;1920.00;;;;;;5032716;28;19913;-59
2022/10/23 09:44:25;;;;;;;;;;;615.00;1971.20;;;;;;5032758;28;19921;-59
2022/10/23 09:46:57;;;;;;;;;;;614.90;1996.80;;;;;;5032613;28;20352;-59
2022/10/23 09:49:24;;;;;;;;;;;614.80;1996.80;;;;;;5024878;28;20364;-60
2022/10/23 09:51:58;;;;;;;;;;;614.90;1996.80;;;;;;5021596;28;19910;-61
2022/10/23 09:54:23;;;;;;;;;;;615.10;1971.20;;;;;;5022073;28;19916;-57
2022/10/23 09:56:50;;;;;;;;;;;614.40;2022.40;;;;;;5019949;28;19996;-59
2022/10/23 09:59:29;;;;;;;;;;;614.60;2022.40;;;;;;5015663;28;19913;-59
2022/10/23 10:01:56;;;;;;;;;;;614.60;2022.40;;;;;;5010333;28;20081;-60
2022/10/23 10:04:34;;;;;;;;;;;614.60;2022.40;;;;;;5010994;28;19948;-59
2022/10/23 10:07:00;;;;;;;;;;;614.40;2022.40;;;;;;5010790;28;19944;-60
2022/10/23 10:09:26;;;;;;;;;;;614.70;2022.40;;;;;;5010641;28;20359;-60
2022/10/23 10:12:30;;;;;;;;;;;614.60;2022.40;;;;;;5010739;28;19920;-59
2022/10/23 10:14:55;;;;;;;;;;;614.60;2022.40;;;;;;4949595;29;20009;-59
2022/10/23 10:17:33;;;;;;;;;;;614.80;2022.40;;;;;;4950173;28;20402;-60
2022/10/23 10:20:16;;;;;;;;;;;615.10;1996.80;;;;;;4949821;29;19953;-60
2022/10/23 10:22:48;;;;;;;;;;;614.60;2022.40;;;;;;4950058;29;19926;-59
2022/10/23 10:25:13;;;;;;;;;;;589.60;2073.60;;;;;;4950035;29;19953;-60
2022/10/23 10:27:44;;;;;;;;;;;589.70;2022.40;;;;;;4949100;28;19986;-59
2022/10/23 10:30:16;;;;;;;;;;;614.70;1996.80;;;;;;4949742;29;19929;-60
2022/10/23 10:32:48;;;;;;;;;;;614.90;1971.20;;;;;;4933958;29;20273;-59
2022/10/23 10:35:13;;;;;;;;;;;614.70;1996.80;;;;;;4949564;29;20393;-60
2022/10/23 10:37:48;;;;;;;;;;;614.50;1996.80;;;;;;4949618;29;19962;-59
2022/10/23 10:40:39;;;;;;;;;;;614.60;1996.80;;;;;;4949288;29;19962;-60
2022/10/23 10:43:17;;;;;;;;;;;615.00;1971.20;;;;;;4946668;29;20006;-59
2022/10/23 10:45:46;;;;;;;;;;;614.80;1996.80;;;;;;4976743;28;20150;-60
2022/10/23 10:48:30;;;;;;;;;;;615.20;1971.20;;;;;;5010840;28;20253;-59
2022/10/23 10:50:59;;;;;;;;;;;614.80;2022.40;;;;;;5011731;28;19922;-59
2022/10/23 10:53:32;;;;;;;;;;;614.90;1996.80;;;;;;5011526;28;20352;-59
2022/10/23 10:56:00;;;;;;;;;;;615.30;1971.20;;;;;;5011728;28;19913;-60
2022/10/23 10:58:46;;;;;;;;;;;614.80;1971.20;;;;;;5011207;28;19920;-60
2022/10/23 11:01:25;;;;;;;;;;;615.20;1971.20;;;;;;4912729;29;19912;-60
2022/10/23 11:03:53;;;;;;;;;;;640.20;1971.20;;;;;;4912971;29;20397;-59
2022/10/23 11:06:20;;;;;;;;;;;640.10;1920.00;;;;;;4912575;29;19911;-60
2022/10/23 11:08:46;;;;;;;;;;;640.50;1894.40;;;;;;4912731;29;20013;-60
2022/10/23 11:11:44;;;;;;;;;;;640.90;1868.80;;;;;;4912670;29;20018;-60
2022/10/23 11:14:21;;;;;;;;;;;640.70;1868.80;;;;;;4856630;29;20326;-60
2022/10/23 11:16:48;;;;;;;;;;;640.70;1843.20;;;;;;4856455;29;19952;-59
2022/10/23 11:19:29;;;;;;;;;;;640.80;1843.20;;;;;;4856683;29;19999;-60
2022/10/23 11:22:08;;;;;;;;;;;640.70;1868.80;;;;;;4856698;29;20422;-59
2022/10/23 11:24:42;;;;;;;;;;;640.60;1868.80;;;;;;4856538;29;20013;-60
2022/10/23 11:27:31;;;;;;;;;;;640.40;1894.40;;;;;;4856241;29;20352;-60
2022/10/23 11:30:11;;;;;;;;;;;640.10;1894.40;;;;;;4848964;29;19966;-59
2022/10/23 11:32:47;;;;;;;;;;;615.20;1920.00;;;;;;4856259;29;19912;-59
2022/10/23 11:35:29;;;;;;;;;;;640.00;1920.00;;;;;;4860057;29;19928;-60
2022/10/23 11:38:14;;;;;;;;;;;640.20;1920.00;;;;;;4881305;29;19916;-59
2022/10/23 11:40:47;;;;;;;;;;;640.20;1894.40;;;;;;4893470;29;19994;-58
2022/10/23 11:43:24;;;;;;;;;;;640.40;1868.80;;;;;;4893497;29;19912;-60
2022/10/23 11:45:50;;;;;;;;;;;640.00;1894.40;;;;;;4893340;29;19911;-60
2022/10/23 11:48:18;;;;;;;;;;;640.30;1894.40;;;;;;4893360;29;19915;-60
2022/10/23 11:50:44;;;;;;;;;;;640.40;1868.80;;;;;;4997965;28;20355;-60
2022/10/23 11:53:24;;;;;;;;;;;640.20;1894.40;;;;;;5010711;28;20000;-60
2022/10/23 11:55:57;;;;;;;;;;;640.40;1894.40;;;;;;5010673;28;19910;-60
2022/10/23 11:58:30;;;;;;;;;;;640.40;1894.40;;;;;;5010785;28;19909;-60
2022/10/23 12:01:16;;;;;;;;;;;640.20;1894.40;;;;;;5010375;28;19914;-61
2022/10/23 12:04:02;;;;;;;;;;;640.50;1868.80;;;;;;5010883;28;19916;-60
2022/10/23 12:06:32;;;;;;;;;;;640.40;1894.40;;;;;;5010121;28;19943;-61
2022/10/23 12:09:00;;;;;;;;;;;640.20;1920.00;;;;;;5010521;28;19909;-61
2022/10/23 12:11:27;;;;;;;;;;;640.60;1868.80;;;;;;5010242;28;19913;-61
2022/10/23 12:13:53;;;;;;;;;;;640.70;1868.80;;;;;;5010442;28;20307;-60
2022/10/23 12:16:19;;;;;;;;;;;640.40;1894.40;;;;;;5010179;28;19910;-60
2022/10/23 12:18:46;;;;;;;;;;;640.20;1920.00;;;;;;5010479;28;19909;-60
2022/10/23 12:21:15;;;;;;;;;;;640.40;1868.80;;;;;;5010587;28;20280;-61
2022/10/23 12:23:44;;;;;;;;;;;640.10;1894.40;;;;;;5008454;28;20555;-60
2022/10/23 12:26:15;;;;;;;;;;;640.40;1920.00;;;;;;5008847;28;19952;-60
2022/10/23 12:28:59;;;;;;;;;;;640.50;1894.40;;;;;;5008915;28;19914;-59
2022/10/23 12:31:37;;;;;;;;;;;640.50;1894.40;;;;;;5008980;28;19922;-60
2022/10/23 12:34:08;;;;;;;;;;;640.40;1920.00;;;;;;5008865;28;20390;-61
2022/10/23 12:36:40;;;;;;;;;;;640.00;1920.00;;;;;;4993134;28;19928;-60
2022/10/23 12:39:44;;;;;;;;;;;640.10;1945.60;;;;;;4989279;28;19917;-60
2022/10/23 12:42:20;;;;;;;;;;;615.30;1945.60;;;;;;4902245;29;19911;-60
2022/10/23 12:44:56;;;;;;;;;;;640.20;1920.00;;;;;;4910106;29;19946;-62
2022/10/23 12:47:21;;;;;;;;;;;640.20;1920.00;;;;;;4910051;29;19911;-62
2022/10/23 12:49:48;;;;;;;;;;;615.30;1945.60;;;;;;4909309;29;19923;-62
2022/10/23 12:52:17;;;;;;;;;;;615.20;1971.20;;;;;;4910038;29;20010;-61
2022/10/23 12:54:43;;;;;;;;;;;614.90;1971.20;;;;;;4909933;29;19911;-60
2022/10/23 12:57:22;;;;;;;;;;;615.00;1971.20;;;;;;4909794;29;19918;-60
2022/10/23 12:59:48;;;;;;;;;;;615.30;1971.20;;;;;;4909881;29;19962;-61
2022/10/23 13:02:27;;;;;;;;;;;615.30;1945.60;;;;;;4909453;29;19966;-60
2022/10/23 13:04:54;;;;;;;;;;;614.80;1996.80;;;;;;4909908;29;20014;-61
2022/10/23 13:07:21;;;;;;;;;;;614.70;2022.40;;;;;;4909766;29;20712;-60
2022/10/23 13:09:47;;;;;;;;;;;614.80;1996.80;;;;;;4909744;29;19946;-60
2022/10/23 13:12:24;;;;;;;;;;;614.80;1996.80;;;;;;4927288;28;20348;-59
2022/10/23 13:14:58;;;;;;;;;;;614.70;2022.40;;;;;;4992156;28;19914;-60
2022/10/23 13:17:37;;;;;;;;;;;614.90;1996.80;;;;;;4992551;28;19913;-62
2022/10/23 13:20:09;;;;;;;;;;;614.70;2048.00;;;;;;4992523;28;19925;-60
2022/10/23 13:22:35;;;;;;;;;;;614.80;2022.40;;;;;;4992353;28;19918;-62
2022/10/23 13:25:01;;;;;;;;;;;614.70;2022.40;;;;;;4992372;28;20233;-62
2022/10/23 13:27:29;;;;;;;;;;;614.60;2022.40;;;;;;4992088;28;20284;-61
2022/10/23 13:29:54;;;;;;;;;;;614.80;2022.40;;;;;;4991527;28;20407;-60
2022/10/23 13:32:24;;;;;;;;;;;614.90;1996.80;;;;;;4992083;28;19910;-61
2022/10/23 13:34:50;;;;;;;;;;;615.10;1971.20;;;;;;4992763;28;19952;-61
2022/10/23 13:37:21;;;;;;;;;;;615.10;1996.80;;;;;;5011499;28;20016;-60
2022/10/23 13:39:57;;;;;;;;;;;614.90;1996.80;;;;;;5011364;28;19952;-61
2022/10/23 13:42:23;;;;;;;;;;;615.10;1996.80;;;;;;5011224;28;19913;-60
2022/10/23 13:44:48;;;;;;;;;;;614.90;1996.80;;;;;;5011407;28;19932;-60
2022/10/23 13:47:14;;;;;;;;;;;614.90;1996.80;;;;;;5011482;28;19910;-59
2022/10/23 13:49:40;;;;;;;;;;;615.10;1996.80;;;;;;5011253;28;20363;-61
2022/10/23 13:52:08;;;;;;;;;;;615.30;1971.20;;;;;;5011092;28;19910;-61
2022/10/23 13:54:33;;;;;;;;;;;615.10;1996.80;;;;;;5011124;28;19910;-60